Terminal Aerodrome Forecast
Issued by NWS

Home | Current Version | Previous Version | Text Only | Print | Product List | Glossary On
Versions: 1 2 3 4 5 6 7 8 9 10 11 12 13 14 15
000
FTUS43 KABR 282300
TAFMBG
TAF
KMBG 282327Z 2900/2924 33025G35KT P6SM OVC010
     FM290200 33024G35KT P6SM OVC009
     FM291200 35014KT P6SM OVC012
     FM292000 02008KT P6SM SKC=

USA.gov is the U.S. government's official web portal to all federal, state and local government web resources and services.